Time;durP1;ratioP1;P1;durP2;ratioP2;P2;SDS_P1;SDS_P2;PMS_P1;PMS_P2;Temp;Humidity;BMP_temperature;BMP_pressure;BME280_temperature;BME280_humidity;BME280_pressure;Samples;Min_cycle;Max_cycle;Signal;HPM_P1;HPM_P2
2021/11/28 00:00:28;;;;;;;7.17;5.10;;;1.60;99.90;0.80;98539.00;;;;5018002;27;86931;-66
2021/11/28 00:02:55;;;;;;;7.00;6.00;;;1.80;99.90;0.90;98540.00;;;;5017166;27;88830;-66
2021/11/28 00:05:24;;;;;;;11.00;6.23;;;1.80;99.90;0.90;98538.00;;;;5019027;27;88512;-68
2021/11/28 00:11:17;;;;;;;9.70;6.20;;;1.10;99.90;0.90;98514.00;;;;5018920;27;87783;-65
2021/11/28 00:16:00;;;;;;;8.60;6.23;;;1.10;99.90;0.90;98517.00;;;;5016104;27;87783;-66
2021/11/28 00:18:27;;;;;;;13.50;7.73;;;1.20;99.90;0.90;98516.00;;;;5003288;27;87742;-66
2021/11/28 00:20:53;;;;;;;11.77;7.60;;;1.10;99.90;0.80;98519.00;;;;5019890;27;87617;-67
2021/11/28 00:23:19;;;;;;;10.47;6.87;;;1.10;99.90;0.90;98518.00;;;;5010114;27;88288;-67
2021/11/28 00:25:45;;;;;;;10.77;7.47;;;1.10;99.90;0.90;98518.00;;;;4996278;27;115855;-67
2021/11/28 00:28:13;;;;;;;11.87;7.53;;;1.10;99.90;0.80;98519.00;;;;4998182;28;92919;-67
2021/11/28 00:30:40;;;;;;;11.07;6.13;;;1.60;99.90;0.80;98527.00;;;;4999857;27;87897;-67
2021/11/28 00:33:07;;;;;;;8.93;7.37;;;1.20;99.90;0.80;98537.00;;;;4997585;27;89326;-67
2021/11/28 00:35:33;;;;;;;11.10;7.57;;;1.30;99.90;0.80;98535.00;;;;4998766;28;92621;-67
2021/11/28 00:37:58;;;;;;;9.07;6.57;;;1.10;99.90;0.80;98530.00;;;;5006426;27;87929;-68
2021/11/28 00:40:24;;;;;;;9.10;7.20;;;1.50;99.90;0.80;98543.00;;;;4999564;28;87806;-67
2021/11/28 00:42:50;;;;;;;12.10;7.57;;;1.10;99.90;0.80;98537.00;;;;4998921;27;89118;-68
2021/11/28 00:45:16;;;;;;;10.07;7.13;;;2.00;99.90;0.80;98538.00;;;;4998761;28;88882;-68
2021/11/28 00:47:41;;;;;;;8.37;5.77;;;1.10;99.90;0.80;98543.00;;;;4996127;27;99223;-67
2021/11/28 00:52:38;;;;;;;11.93;7.67;;;1.00;99.90;0.70;98537.00;;;;4996740;28;87764;-67
2021/11/28 00:55:07;;;;;;;10.77;7.27;;;1.00;99.90;0.70;98567.00;;;;4990764;27;89215;-68
2021/11/28 00:57:34;;;;;;;13.63;7.60;;;1.00;99.90;0.70;98564.00;;;;5003162;27;88896;-67
2021/11/28 01:00:06;;;;;;;12.27;7.87;;;1.60;99.90;0.80;98588.00;;;;4998143;28;96823;-68
2021/11/28 01:02:33;;;;;;;8.80;6.50;;;1.70;99.90;0.80;98584.00;;;;4998341;27;89144;-68
2021/11/28 01:05:00;;;;;;;9.53;7.00;;;1.60;99.90;0.80;98581.00;;;;4999214;27;87728;-69
2021/11/28 01:07:30;;;;;;;10.30;6.77;;;1.10;99.90;0.80;98589.00;;;;5000305;27;88246;-70
2021/11/28 01:09:56;;;;;;;9.43;6.00;;;1.10;99.90;0.90;98579.00;;;;4998238;28;88129;-70
2021/11/28 01:12:22;;;;;;;10.33;6.30;;;1.60;99.90;0.90;98577.00;;;;4996850;27;116933;-68
2021/11/28 01:14:50;;;;;;;9.77;6.17;;;2.00;99.90;0.90;98587.00;;;;4998146;28;88787;-69
2021/11/28 01:17:18;;;;;;;10.17;6.83;;;1.10;99.90;0.90;98582.00;;;;4998247;27;88791;-68
2021/11/28 01:19:44;;;;;;;8.27;5.43;;;1.30;99.90;0.90;98573.00;;;;5013010;27;87640;-68
2021/11/28 01:22:13;;;;;;;7.63;5.43;;;1.10;99.90;1.00;98595.00;;;;5004594;27;117674;-68
2021/11/28 01:24:39;;;;;;;9.10;5.70;;;1.20;99.90;1.00;98585.00;;;;4998251;27;89182;-70
2021/11/28 01:27:10;;;;;;;9.40;6.63;;;1.10;99.90;1.00;98602.00;;;;4998359;28;87860;-69
2021/11/28 01:29:35;;;;;;;8.40;5.43;;;1.20;99.90;1.00;98596.00;;;;4998360;27;87685;-69
2021/11/28 01:32:02;;;;;;;9.17;6.20;;;1.30;99.90;0.90;98599.00;;;;4997304;27;88041;-69
2021/11/28 01:34:30;;;;;;;9.23;7.10;;;1.20;99.90;0.90;98597.00;;;;5009231;27;97152;-69
2021/11/28 01:36:57;;;;;;;6.43;5.40;;;1.10;99.90;0.90;98596.00;;;;5015528;27;87831;-69
2021/11/28 01:39:23;;;;;;;6.93;5.57;;;1.10;99.90;0.90;98602.00;;;;5018068;27;87454;-70
2021/11/28 01:41:50;;;;;;;7.00;5.30;;;1.20;99.90;0.90;98600.00;;;;5016257;27;118172;-70
2021/11/28 01:44:16;;;;;;;7.13;6.00;;;1.50;99.90;0.90;98596.00;;;;5015599;27;87854;-70
2021/11/28 01:46:42;;;;;;;9.67;6.07;;;1.10;99.90;0.90;98607.00;;;;5014825;27;110783;-69
2021/11/28 01:49:10;;;;;;;7.47;6.10;;;2.10;99.90;0.90;98603.00;;;;5018801;27;87867;-69
2021/11/28 01:51:38;;;;;;;8.60;5.70;;;1.50;99.90;0.90;98599.00;;;;5013748;27;89092;-68
2021/11/28 01:54:14;;;;;;;7.20;5.27;;;1.20;99.90;1.00;98606.00;;;;4996950;28;88071;-69
2021/11/28 01:56:48;;;;;;;7.90;5.33;;;1.20;99.90;1.00;98601.00;;;;4995021;28;87760;-69
2021/11/28 01:59:15;;;;;;;9.37;6.07;;;1.50;99.90;1.00;98602.00;;;;4997726;27;92544;-68
2021/11/28 02:01:42;;;;;;;8.30;5.40;;;1.20;99.90;1.00;98592.00;;;;4997209;27;90181;-68
2021/11/28 02:04:14;;;;;;;9.07;6.07;;;1.80;99.90;1.00;98578.00;;;;4997499;27;87038;-69
2021/11/28 02:06:42;;;;;;;7.87;5.37;;;1.30;99.90;1.00;98576.00;;;;4996445;28;87753;-68
2021/11/28 02:09:07;;;;;;;10.40;7.00;;;1.90;99.90;1.00;98591.00;;;;4996942;28;87951;-68
2021/11/28 02:11:33;;;;;;;8.67;5.70;;;2.30;99.90;1.00;98584.00;;;;4995381;27;119612;-69
2021/11/28 02:13:59;;;;;;;9.27;6.07;;;1.30;99.90;1.00;98590.00;;;;5003418;27;120408;-69
2021/11/28 02:16:24;;;;;;;8.50;5.67;;;1.20;99.90;1.00;98593.00;;;;4996357;27;109913;-69
2021/11/28 02:18:50;;;;;;;6.40;5.47;;;1.20;99.90;1.00;98579.00;;;;4994674;27;109020;-68
2021/11/28 02:21:17;;;;;;;8.37;5.70;;;1.30;99.90;1.00;98595.00;;;;5001024;27;87737;-69
2021/11/28 02:23:43;;;;;;;8.97;5.83;;;1.20;99.90;1.00;98596.00;;;;5016162;27;98329;-69
2021/11/28 02:26:14;;;;;;;7.17;6.07;;;1.40;99.90;1.00;98590.00;;;;4997967;27;87741;-69
2021/11/28 02:28:43;;;;;;;8.10;6.03;;;1.10;99.90;0.90;98584.00;;;;5016389;27;87020;-69
2021/11/28 02:31:09;;;;;;;9.70;5.37;;;1.20;99.90;0.90;98572.00;;;;5013929;27;104932;-70
2021/11/28 02:33:35;;;;;;;11.37;4.90;;;1.20;99.90;0.80;98560.00;;;;5014750;27;89853;-69
2021/11/28 02:36:02;;;;;;;9.90;5.53;;;1.60;99.90;0.80;98560.00;;;;5016052;27;94313;-69
2021/11/28 02:38:28;;;;;;;9.07;5.30;;;1.10;99.90;0.70;98551.00;;;;5017089;27;87658;-68
2021/11/28 02:40:54;;;;;;;8.27;5.73;;;1.00;99.90;0.70;98565.00;;;;5015455;27;88036;-69
2021/11/28 02:43:21;;;;;;;6.97;5.40;;;0.90;99.90;0.60;98565.00;;;;4998452;27;88353;-69
2021/11/28 02:45:47;;;;;;;7.50;4.60;;;0.90;99.90;0.60;98555.00;;;;4997154;28;87475;-68
2021/11/28 02:48:15;;;;;;;9.03;5.77;;;0.70;99.90;0.50;98539.00;;;;4997427;27;94535;-69
2021/11/28 02:50:42;;;;;;;8.97;5.33;;;0.80;99.90;0.50;98539.00;;;;4996411;28;94816;-68
2021/11/28 02:53:10;;;;;;;5.50;4.40;;;0.80;99.90;0.40;98536.00;;;;4996658;27;87144;-68
2021/11/28 02:55:41;;;;;;;7.93;5.03;;;1.00;99.90;0.40;98529.00;;;;4996553;28;97917;-67
2021/11/28 02:58:12;;;;;;;6.47;4.87;;;0.70;99.90;0.30;98527.00;;;;4997440;27;96364;-67
2021/11/28 03:00:43;;;;;;;6.63;4.53;;;0.60;99.90;0.20;98525.00;;;;4996386;28;89363;-67
2021/11/28 03:03:09;;;;;;;8.40;5.53;;;1.00;99.90;0.20;98524.00;;;;4996150;27;88488;-67
2021/11/28 03:05:35;;;;;;;8.03;5.10;;;0.50;99.90;0.20;98528.00;;;;4996957;28;87743;-67
2021/11/28 03:08:01;;;;;;;8.00;5.87;;;0.50;99.90;0.10;98527.00;;;;4994923;27;88095;-68
2021/11/28 03:10:43;;;;;;;8.57;5.63;;;0.40;99.90;0.10;98528.00;;;;5007871;27;106399;-68
2021/11/28 03:13:21;;;;;;;6.93;4.70;;;0.50;99.90;0.10;98531.00;;;;5013916;27;88045;-68
2021/11/28 03:15:50;;;;;;;8.07;5.60;;;0.40;99.90;0.10;98526.00;;;;5017041;27;88042;-68
2021/11/28 03:18:20;;;;;;;6.57;4.90;;;0.30;99.90;0.00;98529.00;;;;4996592;27;87071;-68
2021/11/28 03:20:47;;;;;;;6.90;4.97;;;0.30;99.90;0.00;98536.00;;;;4986835;27;93195;-69
2021/11/28 03:23:16;;;;;;;7.40;5.03;;;0.30;99.90;0.00;98544.00;;;;5016092;27;94858;-68
2021/11/28 03:25:42;;;;;;;7.47;5.33;;;0.30;99.90;0.00;98549.00;;;;5016696;27;88768;-69
2021/11/28 03:28:17;;;;;;;5.63;4.73;;;0.30;99.90;-0.10;98572.00;;;;5012267;27;88419;-68
2021/11/28 03:30:47;;;;;;;6.20;4.37;;;0.30;99.90;-0.10;98561.00;;;;4994491;27;87995;-67
2021/11/28 03:33:14;;;;;;;9.83;5.70;;;1.10;99.90;-0.10;98574.00;;;;4997204;27;88462;-68
2021/11/28 03:35:40;;;;;;;7.53;6.23;;;0.20;99.90;-0.10;98579.00;;;;4995949;27;87591;-66
2021/11/28 03:38:06;;;;;;;8.00;6.00;;;0.30;99.90;-0.10;98579.00;;;;5007188;27;107517;-66
2021/11/28 03:40:35;;;;;;;7.50;5.73;;;0.90;99.90;-0.10;98572.00;;;;5015547;27;94190;-66
2021/11/28 03:43:01;;;;;;;7.70;5.93;;;0.20;99.90;-0.10;98576.00;;;;5015468;27;102246;-66
2021/11/28 03:45:26;;;;;;;9.70;5.03;;;0.30;99.90;-0.10;98572.00;;;;5015656;27;99448;-66
2021/11/28 03:47:52;;;;;;;7.93;5.00;;;0.20;99.90;0.00;98568.00;;;;5015530;27;98711;-66
2021/11/28 03:50:18;;;;;;;8.13;6.00;;;1.80;99.90;0.00;98575.00;;;;5013707;27;118420;-66
2021/11/28 03:52:44;;;;;;;7.97;5.87;;;0.10;99.90;-0.10;98571.00;;;;5014397;27;117354;-66
2021/11/28 03:55:11;;;;;;;8.90;5.20;;;0.20;99.90;0.00;98574.00;;;;5016388;27;87838;-66
2021/11/28 03:57:37;;;;;;;6.20;4.73;;;0.20;99.90;-0.10;98575.00;;;;5016129;27;87519;-66
2021/11/28 04:00:10;;;;;;;8.40;5.53;;;0.20;99.90;-0.10;98580.00;;;;5016066;27;87804;-66
2021/11/28 04:02:36;;;;;;;5.77;4.37;;;0.30;99.90;-0.10;98571.00;;;;5015130;27;88444;-67
2021/11/28 04:05:01;;;;;;;7.67;5.20;;;1.00;99.90;-0.10;98575.00;;;;5010886;27;109985;-66
2021/11/28 04:07:27;;;;;;;6.87;5.20;;;0.20;99.90;0.00;98589.00;;;;4996080;28;98747;-66
2021/11/28 04:09:53;;;;;;;9.43;5.07;;;0.20;99.90;0.00;98587.00;;;;4995703;28;88258;-66
2021/11/28 04:12:18;;;;;;;7.70;5.53;;;0.20;99.90;0.00;98590.00;;;;4995335;27;95039;-66
2021/11/28 04:14:44;;;;;;;8.80;5.63;;;0.20;99.90;-0.10;98581.00;;;;4994883;27;111031;-66
2021/11/28 04:17:10;;;;;;;7.97;4.30;;;0.20;99.90;0.00;98575.00;;;;5001265;27;98953;-66
2021/11/28 04:19:35;;;;;;;9.40;5.50;;;0.20;99.90;-0.10;98583.00;;;;5014608;27;102156;-66
2021/11/28 04:22:02;;;;;;;7.83;4.93;;;0.30;99.90;-0.10;98581.00;;;;5014953;27;87795;-66
2021/11/28 04:24:27;;;;;;;10.50;5.63;;;0.30;99.90;-0.10;98579.00;;;;5015394;27;94802;-66
2021/11/28 04:26:53;;;;;;;7.33;4.53;;;0.20;99.90;-0.10;98581.00;;;;5015435;27;92000;-66
2021/11/28 04:29:19;;;;;;;7.10;3.97;;;0.30;99.90;-0.10;98573.00;;;;5015304;27;88692;-65
2021/11/28 04:31:47;;;;;;;7.53;4.47;;;0.10;99.90;-0.10;98573.00;;;;5006625;27;117807;-66
2021/11/28 04:34:16;;;;;;;6.57;4.73;;;0.30;99.90;-0.10;98593.00;;;;4997678;27;88791;-66
2021/11/28 04:36:42;;;;;;;8.13;4.40;;;0.20;99.90;-0.10;98587.00;;;;4995444;28;87798;-66
2021/11/28 04:39:08;;;;;;;5.30;3.70;;;0.20;99.90;-0.10;98594.00;;;;4994541;27;89571;-67
2021/11/28 04:41:34;;;;;;;6.63;3.57;;;0.90;99.90;-0.20;98592.00;;;;4995861;27;87901;-66
2021/11/28 04:44:00;;;;;;;5.87;3.77;;;0.20;99.90;-0.20;98583.00;;;;4996649;27;87759;-66
2021/11/28 04:46:26;;;;;;;6.27;4.17;;;0.10;99.90;-0.20;98577.00;;;;4995905;27;88153;-66
2021/11/28 04:48:52;;;;;;;7.47;5.23;;;0.10;99.90;-0.30;98577.00;;;;4998413;27;96576;-66
2021/11/28 04:51:18;;;;;;;7.10;4.93;;;0.00;99.90;-0.30;98580.00;;;;4999756;27;91525;-66
2021/11/28 04:53:43;;;;;;;5.10;3.63;;;0.20;99.90;-0.30;98584.00;;;;4997329;28;109795;-66
2021/11/28 04:56:09;;;;;;;7.27;5.47;;;0.00;99.90;-0.30;98587.00;;;;4997826;27;87261;-65
2021/11/28 04:58:34;;;;;;;4.47;3.87;;;0.00;99.90;-0.30;98580.00;;;;4996932;27;117755;-66
2021/11/28 05:01:00;;;;;;;4.77;3.97;;;0.00;99.90;-0.40;98587.00;;;;5004831;27;113145;-65
2021/11/28 05:03:26;;;;;;;6.17;4.60;;;0.60;99.90;-0.40;98603.00;;;;5017667;27;88778;-65
2021/11/28 05:05:52;;;;;;;5.60;3.93;;;0.00;99.90;-0.40;98605.00;;;;5018026;27;108688;-65
2021/11/28 05:08:17;;;;;;;5.70;4.07;;;-0.10;99.90;-0.40;98597.00;;;;5010803;27;114622;-65
2021/11/28 05:10:43;;;;;;;5.90;3.87;;;-0.10;99.90;-0.50;98600.00;;;;4997767;27;116956;-65
2021/11/28 05:13:09;;;;;;;6.43;4.07;;;-0.10;99.90;-0.50;98599.00;;;;4997783;28;94751;-65
2021/11/28 05:15:35;;;;;;;8.07;5.07;;;-0.20;99.90;-0.50;98599.00;;;;4998007;28;109117;-66
2021/11/28 05:18:00;;;;;;;6.87;4.83;;;-0.20;99.90;-0.60;98597.00;;;;4996529;27;117760;-64
2021/11/28 05:20:26;;;;;;;7.90;5.07;;;-0.30;99.90;-0.60;98597.00;;;;4998246;28;116286;-65
2021/11/28 05:22:52;;;;;;;8.70;5.53;;;-0.30;99.90;-0.60;98597.00;;;;4996750;27;112027;-66
2021/11/28 05:25:17;;;;;;;8.40;4.67;;;-0.10;99.90;-0.70;98590.00;;;;4995697;28;108282;-65
2021/11/28 05:27:46;;;;;;;4.97;4.33;;;-0.40;99.90;-0.70;98588.00;;;;4997040;27;104492;-65
2021/11/28 05:30:12;;;;;;;7.30;4.27;;;-0.30;99.90;-0.70;98598.00;;;;5015020;27;89853;-65
2021/11/28 05:32:38;;;;;;;8.53;5.23;;;-0.40;99.90;-0.80;98595.00;;;;5017521;27;94509;-65
2021/11/28 05:35:04;;;;;;;9.13;6.20;;;-0.40;99.90;-0.80;98589.00;;;;5000011;27;107678;-65
2021/11/28 05:37:30;;;;;;;9.67;6.90;;;-0.40;99.90;-0.80;98583.00;;;;5017175;27;93013;-65
2021/11/28 05:39:56;;;;;;;6.63;6.00;;;-0.40;99.90;-0.80;98591.00;;;;5018364;27;87928;-65
2021/11/28 05:42:22;;;;;;;8.67;6.50;;;-1.10;99.90;-0.90;98582.00;;;;5017878;27;87868;-65
2021/11/28 05:44:47;;;;;;;8.37;6.67;;;-0.30;99.90;-0.90;98588.00;;;;5016157;27;87067;-65
2021/11/28 05:47:13;;;;;;;10.10;7.27;;;-0.50;99.90;-0.90;98586.00;;;;5017674;27;117074;-65
2021/11/28 05:49:39;;;;;;;7.33;6.13;;;-0.60;99.90;-1.00;98594.00;;;;5017746;27;89124;-65
2021/11/28 05:52:05;;;;;;;8.93;6.63;;;-0.70;99.90;-1.00;98578.00;;;;5017349;27;88687;-66
2021/11/28 05:54:31;;;;;;;7.47;6.17;;;-0.70;99.90;-1.00;98597.00;;;;5018345;27;87744;-65
2021/11/28 05:56:57;;;;;;;8.20;5.27;;;-0.70;99.90;-1.10;98588.00;;;;5010677;27;89001;-65
2021/11/28 05:59:23;;;;;;;7.97;5.13;;;-0.70;99.90;-1.10;98586.00;;;;5015193;27;118806;-65
2021/11/28 06:01:48;;;;;;;10.50;6.10;;;-0.80;99.90;-1.10;98582.00;;;;5017507;27;87932;-65
2021/11/28 06:04:14;;;;;;;5.73;4.47;;;-0.70;99.90;-1.10;98571.00;;;;5016580;27;110367;-65
2021/11/28 06:06:40;;;;;;;8.17;5.90;;;-0.70;99.90;-1.20;98566.00;;;;5017055;27;106191;-65
2021/11/28 06:09:06;;;;;;;10.60;5.90;;;-0.80;99.90;-1.20;98568.00;;;;5017982;27;91587;-64
2021/11/28 06:11:31;;;;;;;7.73;5.33;;;-0.90;99.90;-1.20;98570.00;;;;5017879;27;87827;-64
2021/11/28 06:13:57;;;;;;;7.20;4.63;;;-0.80;99.90;-1.20;98575.00;;;;5017079;27;87724;-65
2021/11/28 06:16:23;;;;;;;6.50;4.40;;;-1.00;99.90;-1.20;98572.00;;;;5014393;27;105452;-65
2021/11/28 06:18:49;;;;;;;11.70;8.03;;;-0.80;99.90;-1.30;98578.00;;;;5015710;27;116227;-64
2021/11/28 06:21:14;;;;;;;7.37;5.57;;;-0.40;99.90;-1.30;98573.00;;;;5017217;27;93392;-64
2021/11/28 06:23:41;;;;;;;7.37;6.07;;;-0.20;99.90;-1.40;98574.00;;;;5016446;27;108704;-64
2021/11/28 06:26:06;;;;;;;7.40;4.97;;;-0.90;99.90;-1.40;98573.00;;;;5006588;27;87999;-65
2021/11/28 06:28:33;;;;;;;4.17;3.70;;;-1.10;99.90;-1.40;98579.00;;;;5001455;27;88956;-65
2021/11/28 06:30:59;;;;;;;7.73;4.93;;;-1.00;99.90;-1.40;98569.00;;;;4997516;27;87762;-64
2021/11/28 06:33:25;;;;;;;4.90;4.33;;;-1.10;99.90;-1.50;98587.00;;;;4996684;27;97704;-64
2021/11/28 06:35:51;;;;;;;6.10;4.80;;;-1.10;99.90;-1.50;98586.00;;;;4997817;27;117569;-64
2021/11/28 06:38:17;;;;;;;5.30;4.27;;;-1.10;99.90;-1.50;98589.00;;;;4995871;27;117921;-65
2021/11/28 06:40:42;;;;;;;7.27;5.13;;;-1.20;99.90;-1.60;98586.00;;;;4996942;28;88522;-64
2021/11/28 06:43:08;;;;;;;5.27;4.53;;;-1.20;99.90;-1.60;98587.00;;;;4995742;27;108307;-65
2021/11/28 06:45:34;;;;;;;6.50;4.57;;;-1.20;99.90;-1.60;98586.00;;;;4997030;28;88808;-64
2021/11/28 06:48:00;;;;;;;5.07;4.57;;;-1.20;99.90;-1.60;98586.00;;;;4996115;27;107934;-64
2021/11/28 06:50:26;;;;;;;8.03;4.97;;;-1.20;99.90;-1.60;98585.00;;;;4994756;28;94799;-64
2021/11/28 06:52:52;;;;;;;5.03;4.43;;;-0.10;99.90;-1.60;98579.00;;;;4997250;27;107961;-65
2021/11/28 06:55:17;;;;;;;5.13;3.77;;;-1.30;99.90;-1.60;98579.00;;;;5016186;27;117968;-64
2021/11/28 06:57:43;;;;;;;7.43;5.70;;;-1.20;99.90;-1.60;98581.00;;;;5015434;27;88545;-64
2021/11/28 07:00:10;;;;;;;6.07;4.90;;;-1.30;99.90;-1.70;98578.00;;;;5016318;27;104179;-64
2021/11/28 07:02:36;;;;;;;7.97;5.67;;;-1.70;99.90;-1.70;98575.00;;;;5016734;27;87854;-65
2021/11/28 07:05:01;;;;;;;8.03;5.13;;;-1.30;99.90;-1.70;98578.00;;;;5014708;27;117535;-64
2021/11/28 07:07:27;;;;;;;9.03;4.90;;;-1.30;99.90;-1.70;98575.00;;;;5016044;27;88911;-64
2021/11/28 07:09:54;;;;;;;5.10;4.33;;;-1.40;99.90;-1.70;98585.00;;;;5008484;27;109332;-65
2021/11/28 07:12:20;;;;;;;6.00;4.43;;;-1.80;99.90;-1.70;98578.00;;;;4993508;27;87894;-65
2021/11/28 07:14:46;;;;;;;8.07;5.30;;;-0.50;99.90;-1.70;98581.00;;;;4992874;27;104184;-66
2021/11/28 07:17:12;;;;;;;6.73;5.00;;;-1.30;99.90;-1.70;98583.00;;;;4993029;27;104870;-64
2021/11/28 07:19:37;;;;;;;7.67;4.80;;;-1.30;99.90;-1.70;98591.00;;;;4993687;27;87775;-64
2021/11/28 07:22:03;;;;;;;9.00;4.47;;;-1.20;99.90;-1.60;98594.00;;;;4993976;27;87267;-64
2021/11/28 07:24:29;;;;;;;6.33;4.43;;;-1.30;99.90;-1.60;98598.00;;;;4992335;27;117819;-64
2021/11/28 07:26:55;;;;;;;6.57;4.97;;;-1.20;99.90;-1.60;98605.00;;;;4993468;27;89668;-65
2021/11/28 07:29:21;;;;;;;8.10;4.70;;;-1.20;99.90;-1.60;98608.00;;;;4992997;27;88576;-65
2021/11/28 07:31:47;;;;;;;8.67;5.03;;;-0.50;99.90;-1.60;98614.00;;;;4992898;27;87409;-65
2021/11/28 07:34:12;;;;;;;6.10;4.93;;;-0.70;99.90;-1.50;98608.00;;;;4993511;27;87667;-64
2021/11/28 07:36:38;;;;;;;6.47;5.10;;;-1.20;99.90;-1.50;98612.00;;;;4992432;27;105245;-65
2021/11/28 07:39:07;;;;;;;6.50;5.17;;;-1.20;99.90;-1.40;98619.00;;;;4992931;27;88213;-65
2021/11/28 07:41:34;;;;;;;6.47;5.07;;;-1.10;99.90;-1.40;98620.00;;;;4993342;27;87982;-65
2021/11/28 07:44:00;;;;;;;10.63;5.47;;;-1.10;99.90;-1.40;98628.00;;;;4992849;27;99098;-64
2021/11/28 07:46:26;;;;;;;5.97;5.20;;;-1.20;99.90;-1.40;98633.00;;;;4993207;27;87934;-64
2021/11/28 07:48:52;;;;;;;8.23;5.77;;;-1.00;99.90;-1.40;98627.00;;;;4993265;27;88181;-65
2021/11/28 07:51:18;;;;;;;10.50;7.93;;;-1.00;99.90;-1.30;98642.00;;;;4992231;27;108167;-65
2021/11/28 07:53:47;;;;;;;12.17;8.07;;;-1.00;99.90;-1.30;98632.00;;;;4991989;27;92166;-65
2021/11/28 07:56:13;;;;;;;12.40;8.50;;;0.00;99.90;-1.30;98639.00;;;;4990723;27;90170;-65
2021/11/28 07:58:39;;;;;;;12.17;7.93;;;-0.90;99.90;-1.30;98645.00;;;;4993509;27;88093;-65
2021/11/28 08:01:05;;;;;;;16.33;10.00;;;-1.00;99.90;-1.30;98639.00;;;;4991980;27;108348;-65
2021/11/28 08:03:32;;;;;;;14.80;8.57;;;-0.90;99.90;-1.30;98643.00;;;;4990780;27;118769;-66
2021/11/28 08:06:00;;;;;;;10.93;7.33;;;-0.80;99.90;-1.30;98634.00;;;;4993143;27;88181;-66
2021/11/28 08:08:33;;;;;;;12.93;6.87;;;-1.00;99.90;-1.20;98642.00;;;;4992423;27;87900;-64
2021/11/28 08:11:02;;;;;;;15.43;11.17;;;-1.00;99.90;-1.20;98637.00;;;;4993887;27;87228;-64
2021/11/28 08:13:28;;;;;;;16.47;10.43;;;-0.90;99.90;-1.10;98627.00;;;;4998939;27;88044;-64
2021/11/28 08:15:55;;;;;;;15.60;9.73;;;-0.80;99.90;-1.10;98640.00;;;;4991824;27;94569;-64
2021/11/28 08:18:20;;;;;;;15.77;8.67;;;-0.70;99.90;-1.00;98639.00;;;;4990858;27;112869;-64
2021/11/28 08:20:46;;;;;;;13.27;8.00;;;-0.80;99.90;-1.00;98647.00;;;;4993318;27;87730;-65
2021/11/28 08:23:12;;;;;;;9.93;7.83;;;-0.70;99.90;-1.00;98640.00;;;;4997349;27;101678;-65
2021/11/28 08:25:37;;;;;;;9.17;6.73;;;-0.70;99.90;-0.90;98657.00;;;;5003927;27;88793;-65
2021/11/28 08:28:08;;;;;;;12.50;6.43;;;-0.60;99.90;-0.90;98656.00;;;;4996583;27;88252;-65
2021/11/28 08:30:36;;;;;;;9.50;6.70;;;-0.60;99.90;-0.90;98660.00;;;;4994004;27;87985;-65
2021/11/28 08:33:03;;;;;;;8.43;6.90;;;-0.60;99.90;-0.80;98656.00;;;;4995872;27;88568;-65
2021/11/28 08:35:29;;;;;;;15.60;8.87;;;-0.50;99.90;-0.80;98655.00;;;;4995219;27;88700;-66
2021/11/28 08:37:57;;;;;;;9.57;6.60;;;-0.50;99.90;-0.70;98656.00;;;;4997141;27;87966;-66
2021/11/28 08:40:24;;;;;;;9.57;6.37;;;-0.50;99.90;-0.70;98668.00;;;;4993623;27;93332;-65
2021/11/28 08:42:50;;;;;;;10.93;6.70;;;-0.30;99.90;-0.60;98655.00;;;;4995102;27;89865;-65
2021/11/28 08:45:16;;;;;;;12.07;6.90;;;0.50;99.90;-0.50;98671.00;;;;4997244;27;88880;-65
2021/11/28 08:47:43;;;;;;;6.43;5.47;;;-0.20;99.90;-0.50;98666.00;;;;4996063;27;87986;-65
2021/11/28 08:50:10;;;;;;;10.03;6.50;;;-0.30;99.90;-0.40;98658.00;;;;4995524;27;94030;-65
2021/11/28 08:52:36;;;;;;;9.43;5.70;;;-0.20;99.90;-0.40;98664.00;;;;4995435;27;88280;-65
2021/11/28 08:55:05;;;;;;;9.13;6.77;;;-0.10;99.90;-0.30;98675.00;;;;4995634;27;88686;-65
2021/11/28 08:57:31;;;;;;;10.20;7.33;;;0.00;99.90;-0.30;98665.00;;;;4996198;27;87687;-65
2021/11/28 08:59:57;;;;;;;10.10;7.87;;;0.00;99.90;-0.20;98678.00;;;;4998933;27;99836;-65
2021/11/28 09:02:22;;;;;;;9.50;6.43;;;0.00;99.90;-0.20;98668.00;;;;4995964;27;88617;-65
2021/11/28 09:04:49;;;;;;;12.20;7.13;;;0.10;99.90;-0.10;98675.00;;;;4994144;27;118374;-66
2021/11/28 09:07:14;;;;;;;11.40;7.47;;;0.10;99.90;-0.10;98676.00;;;;4994427;27;88834;-65
2021/11/28 09:09:40;;;;;;;15.40;8.57;;;0.20;99.90;0.00;98673.00;;;;4994357;27;100491;-64
2021/11/28 09:12:07;;;;;;;11.17;7.10;;;1.10;99.90;0.00;98686.00;;;;4994955;27;88255;-64
2021/11/28 09:14:33;;;;;;;13.93;8.47;;;0.30;99.90;0.10;98678.00;;;;4994879;27;88450;-64
2021/11/28 09:16:58;;;;;;;9.90;7.03;;;0.30;99.90;0.20;98692.00;;;;4995683;27;87748;-64
2021/11/28 09:19:52;;;;;;;13.43;7.20;;;0.40;99.90;0.20;98693.00;;;;5001438;27;88118;-64
2021/11/28 09:22:11;;;;;;;10.90;7.33;;;0.50;99.90;0.30;98693.00;;;;5003597;27;88003;-64
2021/11/28 09:24:37;;;;;;;10.80;8.17;;;0.70;99.90;0.30;98684.00;;;;4999576;27;88483;-64
2021/11/28 09:27:12;;;;;;;11.57;7.67;;;0.50;99.90;0.40;98684.00;;;;5003541;27;87759;-64
2021/11/28 09:29:43;;;;;;;11.97;7.97;;;0.60;99.90;0.40;98683.00;;;;4995625;27;88123;-64
2021/11/28 09:32:10;;;;;;;18.20;9.60;;;1.40;99.90;0.40;98668.00;;;;5009559;27;89264;-64
2021/11/28 09:34:37;;;;;;;14.30;9.30;;;0.70;99.90;0.50;98668.00;;;;4994653;27;88083;-64
2021/11/28 09:37:04;;;;;;;11.67;8.70;;;1.40;99.90;0.50;98667.00;;;;4995110;27;87754;-65
2021/11/28 09:39:30;;;;;;;18.40;9.97;;;0.90;99.90;0.50;98657.00;;;;5000207;27;87810;-66
2021/11/28 09:42:05;;;;;;;14.23;9.40;;;0.80;99.90;0.50;98661.00;;;;4994237;27;87967;-66
2021/11/28 09:44:35;;;;;;;19.37;9.57;;;0.80;99.90;0.60;98655.00;;;;4995020;27;88061;-66
2021/11/28 09:47:02;;;;;;;19.10;10.50;;;0.90;99.90;0.60;98660.00;;;;4993115;27;88139;-66
2021/11/28 09:49:30;;;;;;;15.57;10.23;;;1.30;99.90;0.70;98656.00;;;;4993000;27;86948;-66
2021/11/28 09:52:02;;;;;;;15.80;9.87;;;1.00;99.90;0.70;98647.00;;;;4997065;27;88362;-66
2021/11/28 09:54:29;;;;;;;21.07;12.70;;;1.90;99.90;0.70;98652.00;;;;4994272;27;88569;-66
2021/11/28 09:56:55;;;;;;;16.43;11.97;;;1.40;99.90;0.70;98648.00;;;;4994156;27;111459;-66
2021/11/28 09:59:21;;;;;;;20.83;14.13;;;1.00;99.90;0.70;98637.00;;;;4993900;27;87582;-66
2021/11/28 10:01:48;;;;;;;22.57;12.67;;;1.80;99.90;0.70;98635.00;;;;4993272;27;88994;-66
2021/11/28 10:04:15;;;;;;;18.57;13.20;;;1.10;99.90;0.70;98628.00;;;;4992922;27;110602;-67
2021/11/28 10:06:41;;;;;;;16.60;11.67;;;1.10;99.90;0.70;98630.00;;;;4993226;27;95549;-67
2021/11/28 10:09:08;;;;;;;18.90;11.87;;;1.00;99.90;0.70;98621.00;;;;4992320;27;109831;-67
2021/11/28 10:11:39;;;;;;;20.00;12.10;;;1.00;99.90;0.80;98624.00;;;;4993388;27;89702;-67
2021/11/28 10:14:09;;;;;;;19.07;10.27;;;1.10;99.90;0.80;98634.00;;;;4993703;27;95545;-67
2021/11/28 10:16:35;;;;;;;16.80;10.63;;;1.00;99.90;0.80;98611.00;;;;4994075;27;88027;-67
2021/11/28 10:19:02;;;;;;;15.80;9.90;;;1.70;99.90;0.80;98619.00;;;;4996953;27;87962;-67
2021/11/28 10:21:31;;;;;;;21.63;14.43;;;1.40;99.90;0.90;98616.00;;;;4993142;27;89351;-67
2021/11/28 10:24:16;;;;;;;13.23;11.03;;;1.30;99.90;0.90;98620.00;;;;4991699;27;88020;-67
2021/11/28 10:27:05;;;;;;;17.97;11.33;;;1.50;99.90;0.90;98611.00;;;;4993277;27;87923;-68
2021/11/28 10:29:37;;;;;;;18.43;12.07;;;1.40;99.90;0.90;98611.00;;;;4991455;27;87668;-67
2021/11/28 10:32:11;;;;;;;14.77;10.13;;;1.20;99.90;0.90;98614.00;;;;4991358;27;87979;-67
2021/11/28 10:34:48;;;;;;;17.90;11.53;;;1.20;99.90;0.90;98614.00;;;;4990783;27;90578;-67
2021/11/28 10:37:20;;;;;;;19.80;12.03;;;1.30;99.90;1.00;98620.00;;;;4992791;27;100834;-66
2021/11/28 10:39:50;;;;;;;15.13;10.50;;;1.30;99.90;0.90;98616.00;;;;4993082;27;87170;-66
2021/11/28 10:42:21;;;;;;;14.03;10.67;;;1.90;99.90;1.00;98617.00;;;;4993186;27;88882;-66
2021/11/28 10:45:14;;;;;;;15.53;10.40;;;1.50;99.90;1.00;98626.00;;;;4992894;27;87871;-66
2021/11/28 10:47:49;;;;;;;14.90;11.23;;;1.40;99.90;1.00;98630.00;;;;4993122;27;89000;-67
2021/11/28 10:50:25;;;;;;;21.63;12.77;;;1.90;99.90;1.10;98625.00;;;;4992961;27;87764;-66
2021/11/28 10:53:20;;;;;;;19.37;11.60;;;1.40;99.90;1.00;98637.00;;;;4992805;27;100987;-66
2021/11/28 10:55:50;;;;;;;24.27;13.70;;;1.40;99.90;1.10;98636.00;;;;4987869;27;88101;-66
2021/11/28 10:58:20;;;;;;;17.77;12.33;;;1.40;99.90;1.10;98635.00;;;;4988771;27;88113;-66
2021/11/28 11:00:46;;;;;;;21.50;12.70;;;2.00;99.90;1.00;98635.00;;;;4993159;27;87912;-65
2021/11/28 11:03:14;;;;;;;15.80;10.87;;;1.30;99.90;1.10;98639.00;;;;4993068;27;92642;-67
2021/11/28 11:05:41;;;;;;;18.93;12.13;;;1.60;99.90;1.10;98647.00;;;;4990468;27;87335;-67